Time,TemperatureF,DewpointF,PressureIn,WindDirection,WindDirectionDegrees,WindSpeedMPH,WindSpeedGustMPH,Humidity,HourlyPrecipIn,Conditions,Clouds,dailyrainin,SoftwareType,DateUTC
2013-09-05 00:01:00,53.6,33.9,29.32,SE,135,1.3,2.0,47,0.00,,,0.00,VWS V14.01,2013-09-05 04:01:00,
2013-09-05 00:02:00,53.6,33.9,29.32,NW,315,2.2,3.4,47,0.00,,,0.00,VWS V14.01,2013-09-05 04:02:00,
2013-09-05 00:03:00,53.6,34.4,29.32,NNE,22,2.5,2.5,48,0.00,,,0.00,VWS V14.01,2013-09-05 04:03:00,
2013-09-05 00:04:00,53.6,33.9,29.32,NNE,22,2.0,3.1,47,0.00,,,0.00,VWS V14.01,2013-09-05 04:04:00,
2013-09-05 00:09:00,53.4,34.2,29.32,West,270,1.6,3.4,48,0.00,,,0.00,VWS V14.01,2013-09-05 04:09:00,
2013-09-05 00:10:00,53.4,34.2,29.32,ESE,112,1.1,2.2,48,0.00,,,0.00,VWS V14.01,2013-09-05 04:10:00,
2013-09-05 00:15:00,53.2,34.1,29.32,SE,135,1.1,1.1,48,0.00,,,0.00,VWS V14.01,2013-09-05 04:15:00,
2013-09-05 00:20:00,53.1,33.9,29.32,SW,225,1.1,1.6,48,0.00,,,0.00,VWS V14.01,2013-09-05 04:20:00,
2013-09-05 00:25:00,53.1,33.9,29.32,North,0,0.0,2.0,48,0.00,,,0.00,VWS V14.01,2013-09-05 04:25:00,
2013-09-05 00:30:00,53.1,34.4,29.32,SW,225,0.0,1.1,49,0.00,,,0.00,VWS V14.01,2013-09-05 04:30:00,
2013-09-05 00:35:00,53.1,34.9,29.32,SW,225,0.9,1.1,50,0.00,,,0.00,VWS V14.01,2013-09-05 04:35:00,
2013-09-05 00:40:00,53.2,34.6,29.32,NE,45,1.6,3.1,49,0.00,,,0.00,VWS V14.01,2013-09-05 04:40:00,
2013-09-05 00:45:00,53.2,34.6,29.32,NE,45,0.9,0.9,49,0.00,,,0.00,VWS V14.01,2013-09-05 04:45:00,
2013-09-05 00:50:00,53.1,34.9,29.32,ENE,68,2.0,2.5,50,0.00,,,0.00,VWS V14.01,2013-09-05 04:50:00,
2013-09-05 00:55:00,52.9,35.3,29.35,NE,45,2.5,2.5,51,0.00,,,0.00,VWS V14.01,2013-09-05 04:55:00,
2013-09-05 01:00:00,52.9,35.3,29.35,ENE,68,1.6,2.7,51,0.00,,,0.00,VWS V14.01,2013-09-05 05:00:00,
2013-09-05 01:05:00,52.9,35.3,29.35,East,90,1.6,2.5,51,0.00,,,0.00,VWS V14.01,2013-09-05 05:05:00,
2013-09-05 01:10:00,52.9,35.3,29.32,ENE,68,1.3,1.6,51,0.00,,,0.00,VWS V14.01,2013-09-05 05:10:00,
2013-09-05 01:15:00,52.9,35.3,29.32,East,90,4.0,4.0,51,0.00,,,0.00,VWS V14.01,2013-09-05 05:15:00,
2013-09-05 01:20:00,53.1,35.4,29.32,ESE,112,1.1,2.5,51,0.00,,,0.00,VWS V14.01,2013-09-05 05:20:00,
2013-09-05 01:25:00,53.1,35.4,29.32,ENE,68,2.5,3.4,51,0.00,,,0.00,VWS V14.01,2013-09-05 05:25:00,
2013-09-05 01:30:00,53.2,36.1,29.32,ENE,68,1.1,3.8,52,0.00,,,0.00,VWS V14.01,2013-09-05 05:30:00,
2013-09-05 01:35:00,53.2,36.1,29.32,ESE,112,0.0,4.7,52,0.00,,,0.00,VWS V14.01,2013-09-05 05:35:00,
2013-09-05 01:40:00,53.1,35.9,29.32,ENE,68,1.1,2.7,52,0.00,,,0.00,VWS V14.01,2013-09-05 05:40:00,
2013-09-05 01:45:00,53.1,35.9,29.32,ENE,68,1.6,2.0,52,0.00,,,0.00,VWS V14.01,2013-09-05 05:45:00,
2013-09-05 01:50:00,52.9,36.2,29.32,NE,45,2.0,2.5,53,0.00,,,0.00,VWS V14.01,2013-09-05 05:50:00,
2013-09-05 01:55:00,53.1,36.4,29.32,ENE,68,1.3,2.2,53,0.00,,,0.00,VWS V14.01,2013-09-05 05:55:00,
2013-09-05 02:01:00,53.1,36.4,29.32,ENE,68,2.0,2.0,53,0.00,,,0.00,VWS V14.01,2013-09-05 06:01:00,
2013-09-05 02:06:00,52.9,36.7,29.32,ENE,68,1.1,3.1,54,0.00,,,0.00,VWS V14.01,2013-09-05 06:06:00,
2013-09-05 02:11:00,52.9,36.7,29.32,NE,45,1.1,1.1,54,0.00,,,0.00,VWS V14.01,2013-09-05 06:11:00,
2013-09-05 02:16:00,52.7,36.5,29.32,ENE,68,2.0,2.0,54,0.00,,,0.00,VWS V14.01,2013-09-05 06:16:00,
2013-09-05 02:21:00,52.3,36.2,29.32,ENE,68,1.6,1.6,54,0.00,,,0.00,VWS V14.01,2013-09-05 06:21:00,
2013-09-05 02:26:00,52.2,36.0,29.32,ENE,68,1.3,1.3,54,0.00,,,0.00,VWS V14.01,2013-09-05 06:26:00,
2013-09-05 02:31:00,52.0,36.3,29.32,ENE,68,1.1,1.3,55,0.00,,,0.00,VWS V14.01,2013-09-05 06:31:00,
2013-09-05 02:36:00,52.0,36.8,29.32,ENE,68,0.0,0.0,56,0.00,,,0.00,VWS V14.01,2013-09-05 06:36:00,
2013-09-05 02:41:00,51.8,36.6,29.32,ENE,68,1.1,1.1,56,0.00,,,0.00,VWS V14.01,2013-09-05 06:41:00,
2013-09-05 02:46:00,52.2,38.3,29.32,ENE,68,2.7,2.7,59,0.00,,,0.00,VWS V14.01,2013-09-05 06:46:00,
2013-09-05 02:51:00,52.2,37.8,29.32,ENE,68,1.3,2.9,58,0.00,,,0.00,VWS V14.01,2013-09-05 06:51:00,
2013-09-05 02:56:00,52.2,37.8,29.35,North,0,2.2,2.9,58,0.00,,,0.00,VWS V14.01,2013-09-05 06:56:00,
2013-09-05 03:01:00,52.2,38.3,29.35,East,90,1.3,1.3,59,0.00,,,0.00,VWS V14.01,2013-09-05 07:01:00,
2013-09-05 03:06:00,52.0,38.1,29.35,North,0,1.1,1.3,59,0.00,,,0.00,VWS V14.01,2013-09-05 07:06:00,
2013-09-05 03:11:00,52.0,38.5,29.35,ENE,68,2.5,2.5,60,0.00,,,0.00,VWS V14.01,2013-09-05 07:11:00,
2013-09-05 03:16:00,52.0,39.0,29.35,NE,45,0.9,2.7,61,0.00,,,0.00,VWS V14.01,2013-09-05 07:16:00,
2013-09-05 03:21:00,52.0,39.4,29.35,NNW,338,1.1,3.8,62,0.00,,,0.00,VWS V14.01,2013-09-05 07:21:00,
2013-09-05 03:26:00,52.2,39.5,29.35,ENE,68,2.0,2.0,62,0.00,,,0.00,VWS V14.01,2013-09-05 07:26:00,
2013-09-05 03:31:00,52.3,40.1,29.35,East,90,4.9,4.9,63,0.00,,,0.00,VWS V14.01,2013-09-05 07:31:00,
2013-09-05 03:36:00,52.5,40.7,29.35,ENE,68,2.5,2.5,64,0.00,,,0.00,VWS V14.01,2013-09-05 07:36:00,
2013-09-05 03:41:00,52.5,40.7,29.35,East,90,1.3,2.0,64,0.00,,,0.00,VWS V14.01,2013-09-05 07:41:00,
2013-09-05 03:46:00,52.7,40.9,29.35,ESE,112,2.0,2.2,64,0.00,,,0.00,VWS V14.01,2013-09-05 07:46:00,
2013-09-05 03:51:00,52.7,41.3,29.35,NNE,22,1.3,2.7,65,0.00,,,0.00,VWS V14.01,2013-09-05 07:51:00,
2013-09-05 03:56:00,52.7,41.3,29.35,NE,45,1.6,2.5,65,0.00,,,0.00,VWS V14.01,2013-09-05 07:56:00,
2013-09-05 04:01:00,52.7,40.9,29.35,ENE,68,2.0,2.5,64,0.00,,,0.00,VWS V14.01,2013-09-05 08:01:00,
2013-09-05 04:06:00,52.7,41.3,29.35,ENE,68,2.0,2.2,65,0.00,,,0.00,VWS V14.01,2013-09-05 08:06:00,
2013-09-05 04:11:00,52.7,41.3,29.38,SE,135,0.0,1.6,65,0.00,,,0.00,VWS V14.01,2013-09-05 08:11:00,
2013-09-05 04:16:00,52.7,41.3,29.38,NW,315,2.0,2.7,65,0.00,,,0.00,VWS V14.01,2013-09-05 08:16:00,
2013-09-05 04:21:00,52.9,41.5,29.38,ENE,68,2.0,3.4,65,0.00,,,0.00,VWS V14.01,2013-09-05 08:21:00,
2013-09-05 04:26:00,52.9,41.5,29.38,NNE,22,0.9,2.0,65,0.00,,,0.00,VWS V14.01,2013-09-05 08:26:00,
2013-09-05 04:31:00,53.1,42.0,29.38,NE,45,3.1,3.1,66,0.00,,,0.00,VWS V14.01,2013-09-05 08:31:00,
2013-09-05 04:36:00,53.2,42.6,29.38,North,0,2.5,2.5,67,0.00,,,0.00,VWS V14.01,2013-09-05 08:36:00,
2013-09-05 04:42:00,53.2,43.0,29.38,ENE,68,2.7,2.7,68,0.00,,,0.00,VWS V14.01,2013-09-05 08:42:00,
2013-09-05 04:47:00,53.1,42.8,29.38,NE,45,1.6,2.0,68,0.00,,,0.00,VWS V14.01,2013-09-05 08:47:00,
2013-09-05 04:52:00,52.9,42.2,29.38,NE,45,1.3,1.3,67,0.00,,,0.00,VWS V14.01,2013-09-05 08:52:00,
2013-09-05 04:57:00,52.5,41.5,29.38,NE,45,2.5,2.5,66,0.00,,,0.00,VWS V14.01,2013-09-05 08:57:00,
2013-09-05 05:02:00,52.2,40.8,29.38,NNE,22,2.0,2.0,65,0.00,,,0.00,VWS V14.01,2013-09-05 09:02:00,
2013-09-05 05:07:00,52.2,40.0,29.35,NNE,22,1.1,2.2,63,0.00,,,0.00,VWS V14.01,2013-09-05 09:07:00,
2013-09-05 05:12:00,52.0,39.0,29.35,NE,45,1.1,2.0,61,0.00,,,0.00,VWS V14.01,2013-09-05 09:12:00,
2013-09-05 05:17:00,51.8,38.4,29.35,NE,45,1.3,1.6,60,0.00,,,0.00,VWS V14.01,2013-09-05 09:17:00,
2013-09-05 05:22:00,51.6,38.2,29.35,ENE,68,1.1,2.0,60,0.00,,,0.00,VWS V14.01,2013-09-05 09:22:00,
2013-09-05 05:27:00,51.4,38.0,29.35,East,90,2.2,2.2,60,0.00,,,0.00,VWS V14.01,2013-09-05 09:27:00,
2013-09-05 05:32:00,51.3,37.9,29.35,ENE,68,2.5,2.5,60,0.00,,,0.00,VWS V14.01,2013-09-05 09:32:00,
2013-09-05 05:37:00,51.3,37.9,29.38,NE,45,0.0,1.6,60,0.00,,,0.00,VWS V14.01,2013-09-05 09:37:00,
2013-09-05 05:42:00,51.1,37.7,29.38,ENE,68,1.1,2.0,60,0.00,,,0.00,VWS V14.01,2013-09-05 09:42:00,
2013-09-05 05:47:00,51.1,38.1,29.38,NE,45,1.3,1.3,61,0.00,,,0.00,VWS V14.01,2013-09-05 09:47:00,
2013-09-05 05:52:00,50.7,37.8,29.38,ENE,68,1.3,1.6,61,0.00,,,0.00,VWS V14.01,2013-09-05 09:52:00,
2013-09-05 05:57:00,50.5,37.6,29.38,NE,45,1.3,1.3,61,0.00,,,0.00,VWS V14.01,2013-09-05 09:57:00,
2013-09-05 06:02:00,50.5,37.6,29.38,North,0,2.2,2.2,61,0.00,,,0.00,VWS V14.01,2013-09-05 10:02:00,
2013-09-05 06:07:00,50.5,37.6,29.41,NE,45,1.1,1.3,61,0.00,,,0.00,VWS V14.01,2013-09-05 10:07:00,
2013-09-05 06:12:00,50.5,37.6,29.41,ENE,68,2.0,2.0,61,0.00,,,0.00,VWS V14.01,2013-09-05 10:12:00,
2013-09-05 06:17:00,50.5,37.6,29.41,ENE,68,1.6,2.5,61,0.00,,,0.00,VWS V14.01,2013-09-05 10:17:00,
2013-09-05 06:22:00,50.5,37.6,29.44,East,90,2.0,2.0,61,0.00,,,0.00,VWS V14.01,2013-09-05 10:22:00,
2013-09-05 06:27:00,50.5,37.6,29.44,ENE,68,0.0,1.1,61,0.00,,,0.00,VWS V14.01,2013-09-05 10:27:00,
2013-09-05 06:32:00,50.4,37.4,29.44,North,0,1.3,2.5,61,0.00,,,0.00,VWS V14.01,2013-09-05 10:32:00,
2013-09-05 06:37:00,50.4,37.4,29.44,ENE,68,1.1,2.2,61,0.00,,,0.00,VWS V14.01,2013-09-05 10:37:00,
2013-09-05 06:42:00,50.4,37.0,29.44,NE,45,0.0,1.1,60,0.00,,,0.00,VWS V14.01,2013-09-05 10:42:00,
2013-09-05 06:47:00,50.2,36.8,29.44,East,90,1.6,1.6,60,0.00,,,0.00,VWS V14.01,2013-09-05 10:47:00,
2013-09-05 06:52:00,50.2,36.8,29.44,ENE,68,1.3,1.3,60,0.00,,,0.00,VWS V14.01,2013-09-05 10:52:00,
2013-09-05 06:57:00,50.0,36.2,29.44,ENE,68,0.9,2.5,59,0.00,,,0.00,VWS V14.01,2013-09-05 10:57:00,
2013-09-05 07:02:00,49.8,36.1,29.44,East,90,1.6,2.5,59,0.00,,,0.00,VWS V14.01,2013-09-05 11:02:00,
2013-09-05 07:07:00,49.6,35.9,29.44,East,90,2.2,2.2,59,0.00,,,0.00,VWS V14.01,2013-09-05 11:07:00,
2013-09-05 07:12:00,49.6,35.5,29.44,NE,45,0.0,0.0,58,0.00,,,0.00,VWS V14.01,2013-09-05 11:12:00,
2013-09-05 07:17:00,49.5,34.9,29.44,NE,45,0.0,0.0,57,0.00,,,0.00,VWS V14.01,2013-09-05 11:17:00,
2013-09-05 07:22:00,49.3,35.1,29.44,ENE,68,0.0,0.0,58,0.00,,,0.00,VWS V14.01,2013-09-05 11:22:00,
2013-09-05 07:27:00,49.3,34.7,29.44,ENE,68,0.0,0.9,57,0.00,,,0.00,VWS V14.01,2013-09-05 11:27:00,
2013-09-05 07:32:00,49.1,35.0,29.44,ENE,68,0.0,0.0,58,0.00,,,0.00,VWS V14.01,2013-09-05 11:32:00,
2013-09-05 07:37:00,49.3,34.7,29.47,NNE,22,0.9,0.9,57,0.00,,,0.00,VWS V14.01,2013-09-05 11:37:00,
2013-09-05 07:42:00,49.3,35.1,29.47,NE,45,0.0,0.0,58,0.00,,,0.00,VWS V14.01,2013-09-05 11:42:00,
2013-09-05 07:47:00,49.3,34.7,29.47,NE,45,0.0,0.0,57,0.00,,,0.00,VWS V14.01,2013-09-05 11:47:00,
2013-09-05 07:52:00,49.3,34.7,29.47,NE,45,0.0,0.0,57,0.00,,,0.00,VWS V14.01,2013-09-05 11:52:00,
2013-09-05 07:58:00,49.5,34.9,29.47,ENE,68,1.3,1.3,57,0.00,,,0.00,VWS V14.01,2013-09-05 11:58:00,
2013-09-05 08:03:00,49.6,34.6,29.47,East,90,0.0,0.9,56,0.00,,,0.00,VWS V14.01,2013-09-05 12:03:00,
2013-09-05 08:08:00,49.8,34.8,29.47,East,90,0.0,0.0,56,0.00,,,0.00,VWS V14.01,2013-09-05 12:08:00,
2013-09-05 08:13:00,50.2,34.7,29.47,North,0,0.0,0.0,55,0.00,,,0.00,VWS V14.01,2013-09-05 12:13:00,
2013-09-05 08:18:00,50.5,35.0,29.47,ENE,68,0.0,0.0,55,0.00,,,0.00,VWS V14.01,2013-09-05 12:18:00,
2013-09-05 08:23:00,50.5,35.0,29.47,ENE,68,0.0,0.0,55,0.00,,,0.00,VWS V14.01,2013-09-05 12:23:00,
2013-09-05 08:28:00,51.1,35.5,29.47,NE,45,0.0,1.1,55,0.00,,,0.00,VWS V14.01,2013-09-05 12:28:00,
2013-09-05 08:33:00,51.6,36.0,29.47,NE,45,0.0,0.0,55,0.00,,,0.00,VWS V14.01,2013-09-05 12:33:00,
2013-09-05 08:38:00,54.0,37.7,29.50,North,0,0.0,0.0,54,0.00,,,0.00,VWS V14.01,2013-09-05 12:38:00,
2013-09-05 08:43:00,55.0,37.8,29.50,NE,45,0.0,0.0,52,0.00,,,0.00,VWS V14.01,2013-09-05 12:43:00,
2013-09-05 08:48:00,56.1,37.2,29.50,ENE,68,1.6,1.6,49,0.00,,,0.00,VWS V14.01,2013-09-05 12:48:00,
2013-09-05 08:53:00,56.5,36.0,29.50,North,0,1.3,1.3,46,0.00,,,0.00,VWS V14.01,2013-09-05 12:53:00,
2013-09-05 08:58:00,57.0,35.9,29.50,NE,45,0.0,0.0,45,0.00,,,0.00,VWS V14.01,2013-09-05 12:58:00,
2013-09-05 09:03:00,57.6,35.2,29.50,NE,45,0.9,1.1,43,0.00,,,0.00,VWS V14.01,2013-09-05 13:03:00,
2013-09-05 09:08:00,58.3,35.9,29.50,NE,45,0.0,0.9,43,0.00,,,0.00,VWS V14.01,2013-09-05 13:08:00,
2013-09-05 09:13:00,58.8,33.3,29.50,ENE,68,1.6,2.9,38,0.00,,,0.00,VWS V14.01,2013-09-05 13:13:00,
2013-09-05 09:18:00,59.5,33.9,29.50,NNW,338,1.1,1.1,38,0.00,,,0.00,VWS V14.01,2013-09-05 13:18:00,
2013-09-05 09:23:00,59.7,34.1,29.50,NNW,338,0.0,1.1,38,0.00,,,0.00,VWS V14.01,2013-09-05 13:23:00,
2013-09-05 09:28:00,60.3,33.2,29.50,ENE,68,1.6,3.1,36,0.00,,,0.00,VWS V14.01,2013-09-05 13:28:00,
2013-09-05 09:33:00,60.4,32.7,29.50,ENE,68,1.1,2.7,35,0.00,,,0.00,VWS V14.01,2013-09-05 13:33:00,
2013-09-05 09:38:00,61.2,33.3,29.50,ENE,68,1.6,1.6,35,0.00,,,0.00,VWS V14.01,2013-09-05 13:38:00,
2013-09-05 09:43:00,61.9,34.0,29.50,North,0,2.2,2.2,35,0.00,,,0.00,VWS V14.01,2013-09-05 13:43:00,
2013-09-05 09:48:00,62.2,33.5,29.50,NNE,22,1.6,4.0,34,0.00,,,0.00,VWS V14.01,2013-09-05 13:48:00,
2013-09-05 09:53:00,62.6,33.1,29.50,East,90,3.1,3.1,33,0.00,,,0.00,VWS V14.01,2013-09-05 13:53:00,
2013-09-05 09:58:00,63.0,33.4,29.50,North,0,1.1,2.0,33,0.00,,,0.00,VWS V14.01,2013-09-05 13:58:00,
2013-09-05 10:03:00,63.3,33.8,29.50,NE,45,0.9,1.3,33,0.00,,,0.00,VWS V14.01,2013-09-05 14:03:00,
2013-09-05 10:08:00,62.8,30.9,29.50,NNE,22,4.0,4.0,30,0.00,,,0.00,VWS V14.01,2013-09-05 14:08:00,
2013-09-05 10:13:00,63.7,33.3,29.50,East,90,2.2,2.2,32,0.00,,,0.00,VWS V14.01,2013-09-05 14:13:00,
2013-09-05 10:18:00,63.7,32.5,29.50,East,90,0.0,1.1,31,0.00,,,0.00,VWS V14.01,2013-09-05 14:18:00,
2013-09-05 10:23:00,64.8,33.5,29.47,SSE,158,0.0,0.0,31,0.00,,,0.00,VWS V14.01,2013-09-05 14:23:00,
2013-09-05 10:28:00,64.9,32.8,29.47,NNW,338,0.0,2.5,30,0.00,,,0.00,VWS V14.01,2013-09-05 14:28:00,
2013-09-05 10:33:00,65.1,32.9,29.47,NNW,338,0.9,2.0,30,0.00,,,0.00,VWS V14.01,2013-09-05 14:33:00,
2013-09-05 10:38:00,65.8,33.6,29.50,ESE,112,1.3,1.3,30,0.00,,,0.00,VWS V14.01,2013-09-05 14:38:00,
2013-09-05 10:43:00,66.2,33.9,29.50,North,0,1.3,1.6,30,0.00,,,0.00,VWS V14.01,2013-09-05 14:43:00,
2013-09-05 10:48:00,66.2,33.0,29.50,North,0,1.1,2.5,29,0.00,,,0.00,VWS V14.01,2013-09-05 14:48:00,
2013-09-05 10:53:00,67.3,34.0,29.50,NNE,22,0.0,1.3,29,0.00,,,0.00,VWS V14.01,2013-09-05 14:53:00,
2013-09-05 10:59:00,67.3,33.1,29.50,NW,315,2.0,2.0,28,0.00,,,0.00,VWS V14.01,2013-09-05 14:59:00,
2013-09-05 11:04:00,66.9,31.9,29.50,ENE,68,2.7,2.7,27,0.00,,,0.00,VWS V14.01,2013-09-05 15:04:00,
2013-09-05 11:09:00,66.7,31.7,29.50,ESE,112,2.5,2.5,27,0.00,,,0.00,VWS V14.01,2013-09-05 15:09:00,
2013-09-05 11:14:00,67.3,32.2,29.50,North,0,3.6,3.6,27,0.00,,,0.00,VWS V14.01,2013-09-05 15:14:00,
2013-09-05 11:19:00,67.3,32.2,29.50,NNW,338,0.0,1.6,27,0.00,,,0.00,VWS V14.01,2013-09-05 15:19:00,
2013-09-05 11:24:00,67.6,31.6,29.50,NNW,338,3.6,3.6,26,0.00,,,0.00,VWS V14.01,2013-09-05 15:24:00,
2013-09-05 11:29:00,67.8,31.7,29.50,NNW,338,2.9,2.9,26,0.00,,,0.00,VWS V14.01,2013-09-05 15:29:00,
2013-09-05 11:34:00,68.7,32.5,29.50,North,0,0.0,2.9,26,0.00,,,0.00,VWS V14.01,2013-09-05 15:34:00,
2013-09-05 11:39:00,68.2,31.0,29.50,North,0,1.3,2.7,25,0.00,,,0.00,VWS V14.01,2013-09-05 15:39:00,
2013-09-05 11:44:00,68.5,31.4,29.50,North,0,1.6,2.0,25,0.00,,,0.00,VWS V14.01,2013-09-05 15:44:00,
2013-09-05 11:49:00,69.3,32.0,29.50,NNW,338,2.2,2.2,25,0.00,,,0.00,VWS V14.01,2013-09-05 15:49:00,
2013-09-05 11:54:00,68.4,31.2,29.50,NNE,22,2.0,3.6,25,0.00,,,0.00,VWS V14.01,2013-09-05 15:54:00,
2013-09-05 11:59:00,69.1,31.8,29.50,NNE,22,2.2,3.1,25,0.00,,,0.00,VWS V14.01,2013-09-05 15:59:00,
2013-09-05 12:04:00,69.6,32.3,29.50,NNW,338,0.0,0.9,25,0.00,,,0.00,VWS V14.01,2013-09-05 16:04:00,
2013-09-05 12:09:00,70.2,31.7,29.50,NW,315,1.1,3.8,24,0.00,,,0.00,VWS V14.01,2013-09-05 16:09:00,
2013-09-05 12:14:00,68.5,30.4,29.50,WNW,292,4.0,5.4,24,0.00,,,0.00,VWS V14.01,2013-09-05 16:14:00,
2013-09-05 12:19:00,68.7,30.5,29.50,North,0,3.1,3.1,24,0.00,,,0.00,VWS V14.01,2013-09-05 16:19:00,
2013-09-05 12:24:00,67.3,30.3,29.50,SE,135,1.3,2.5,25,0.00,,,0.00,VWS V14.01,2013-09-05 16:24:00,
2013-09-05 12:29:00,69.1,31.8,29.50,SW,225,2.9,2.9,25,0.00,,,0.00,VWS V14.01,2013-09-05 16:29:00,
2013-09-05 12:34:00,69.6,32.3,29.50,NE,45,1.1,2.5,25,0.00,,,0.00,VWS V14.01,2013-09-05 16:34:00,
2013-09-05 12:39:00,69.6,32.3,29.50,West,270,1.6,3.6,25,0.00,,,0.00,VWS V14.01,2013-09-05 16:39:00,
2013-09-05 12:44:00,69.1,30.8,29.50,North,0,3.4,3.4,24,0.00,,,0.00,VWS V14.01,2013-09-05 16:44:00,
2013-09-05 12:49:00,69.4,32.1,29.50,NNE,22,0.0,0.0,25,0.00,,,0.00,VWS V14.01,2013-09-05 16:49:00,
2013-09-05 12:54:00,69.6,31.3,29.50,North,0,2.0,2.7,24,0.00,,,0.00,VWS V14.01,2013-09-05 16:54:00,
2013-09-05 12:59:00,69.4,32.1,29.50,NNW,338,4.0,4.3,25,0.00,,,0.00,VWS V14.01,2013-09-05 16:59:00,
2013-09-05 13:04:00,69.4,31.1,29.50,WSW,248,2.5,2.9,24,0.00,,,0.00,VWS V14.01,2013-09-05 17:04:00,
2013-09-05 13:09:00,70.0,31.6,29.47,WSW,248,2.7,4.3,24,0.00,,,0.00,VWS V14.01,2013-09-05 17:09:00,
2013-09-05 13:14:00,68.7,30.5,29.47,NNW,338,1.1,2.5,24,0.00,,,0.00,VWS V14.01,2013-09-05 17:14:00,
2013-09-05 13:19:00,70.5,31.0,29.47,WSW,248,2.0,3.8,23,0.00,,,0.00,VWS V14.01,2013-09-05 17:19:00,
2013-09-05 13:24:00,70.0,30.5,29.47,NNE,22,1.3,1.6,23,0.00,,,0.00,VWS V14.01,2013-09-05 17:24:00,
2013-09-05 13:29:00,70.5,32.0,29.47,NW,315,1.6,1.6,24,0.00,,,0.00,VWS V14.01,2013-09-05 17:29:00,
2013-09-05 13:34:00,71.2,31.6,29.47,WNW,292,2.0,3.6,23,0.00,,,0.00,VWS V14.01,2013-09-05 17:34:00,
2013-09-05 13:39:00,70.3,30.8,29.47,ENE,68,2.5,2.5,23,0.00,,,0.00,VWS V14.01,2013-09-05 17:39:00,
2013-09-05 13:44:00,69.6,30.2,29.47,NE,45,0.9,3.4,23,0.00,,,0.00,VWS V14.01,2013-09-05 17:44:00,
2013-09-05 13:49:00,70.5,31.0,29.47,WNW,292,2.5,2.5,23,0.00,,,0.00,VWS V14.01,2013-09-05 17:49:00,
2013-09-05 13:54:00,70.7,31.1,29.47,NNW,338,2.5,2.5,23,0.00,,,0.00,VWS V14.01,2013-09-05 17:54:00,
2013-09-05 13:59:00,70.7,31.1,29.47,SW,225,4.0,4.3,23,0.00,,,0.00,VWS V14.01,2013-09-05 17:59:00,
2013-09-05 14:04:00,70.3,30.8,29.47,North,0,0.9,2.0,23,0.00,,,0.00,VWS V14.01,2013-09-05 18:04:00,
2013-09-05 14:09:00,70.5,31.0,29.47,SW,225,3.8,5.6,23,0.00,,,0.00,VWS V14.01,2013-09-05 18:09:00,
2013-09-05 14:15:00,68.7,29.5,29.47,WSW,248,2.9,3.1,23,0.00,,,0.00,VWS V14.01,2013-09-05 18:15:00,
2013-09-05 14:20:00,69.6,31.3,29.47,North,0,2.9,4.9,24,0.00,,,0.00,VWS V14.01,2013-09-05 18:20:00,
2013-09-05 14:25:00,69.6,31.3,29.44,NNW,338,3.1,3.1,24,0.00,,,0.00,VWS V14.01,2013-09-05 18:25:00,
2013-09-05 14:30:00,69.8,30.4,29.44,North,0,3.1,3.1,23,0.00,,,0.00,VWS V14.01,2013-09-05 18:30:00,
2013-09-05 14:35:00,70.3,31.9,29.44,WNW,292,1.1,1.1,24,0.00,,,0.00,VWS V14.01,2013-09-05 18:35:00,
2013-09-05 14:40:00,71.1,31.4,29.44,NW,315,1.6,4.9,23,0.00,,,0.00,VWS V14.01,2013-09-05 18:40:00,
2013-09-05 14:45:00,72.0,32.2,29.44,ENE,68,0.9,2.0,23,0.00,,,0.00,VWS V14.01,2013-09-05 18:45:00,
2013-09-05 14:50:00,69.4,30.1,29.44,West,270,2.9,4.7,23,0.00,,,0.00,VWS V14.01,2013-09-05 18:50:00,
2013-09-05 14:55:00,69.3,31.0,29.44,WNW,292,5.4,5.4,24,0.00,,,0.00,VWS V14.01,2013-09-05 18:55:00,
2013-09-05 15:00:00,68.7,30.5,29.44,WNW,292,5.6,5.6,24,0.00,,,0.00,VWS V14.01,2013-09-05 19:00:00,
2013-09-05 15:05:00,70.3,30.8,29.44,NNW,338,0.0,0.0,23,0.00,,,0.00,VWS V14.01,2013-09-05 19:05:00,
2013-09-05 15:10:00,70.3,30.8,29.44,WSW,248,0.9,1.3,23,0.00,,,0.00,VWS V14.01,2013-09-05 19:10:00,
2013-09-05 15:15:00,71.8,32.0,29.44,ESE,112,0.9,4.0,23,0.00,,,0.00,VWS V14.01,2013-09-05 19:15:00,
2013-09-05 15:20:00,71.2,31.6,29.44,WNW,292,1.6,6.3,23,0.00,,,0.00,VWS V14.01,2013-09-05 19:20:00,
2013-09-05 15:25:00,71.6,31.9,29.44,South,180,2.2,3.1,23,0.00,,,0.00,VWS V14.01,2013-09-05 19:25:00,
2013-09-05 15:30:00,72.5,32.6,29.44,WNW,292,2.5,2.5,23,0.00,,,0.00,VWS V14.01,2013-09-05 19:30:00,
2013-09-05 15:35:00,72.1,31.2,29.44,North,0,1.1,1.3,22,0.00,,,0.00,VWS V14.01,2013-09-05 19:35:00,
2013-09-05 15:40:00,71.1,31.4,29.41,NNW,338,1.6,4.3,23,0.00,,,0.00,VWS V14.01,2013-09-05 19:40:00,
2013-09-05 15:45:00,71.4,31.7,29.41,NE,45,1.3,2.5,23,0.00,,,0.00,VWS V14.01,2013-09-05 19:45:00,
2013-09-05 15:50:00,71.2,31.6,29.41,WSW,248,5.6,5.6,23,0.00,,,0.00,VWS V14.01,2013-09-05 19:50:00,
2013-09-05 15:55:00,71.1,31.4,29.44,West,270,3.8,5.6,23,0.00,,,0.00,VWS V14.01,2013-09-05 19:55:00,
2013-09-05 16:00:00,70.9,31.3,29.44,NNW,338,1.6,3.6,23,0.00,,,0.00,VWS V14.01,2013-09-05 20:00:00,
2013-09-05 16:05:00,70.5,31.0,29.44,WSW,248,3.1,3.1,23,0.00,,,0.00,VWS V14.01,2013-09-05 20:05:00,
2013-09-05 16:10:00,70.9,31.3,29.41,North,0,2.9,2.9,23,0.00,,,0.00,VWS V14.01,2013-09-05 20:10:00,
2013-09-05 16:15:00,72.7,31.7,29.41,North,0,2.9,2.9,22,0.00,,,0.00,VWS V14.01,2013-09-05 20:15:00,
2013-09-05 16:20:00,73.0,32.0,29.41,WSW,248,1.6,1.6,22,0.00,,,0.00,VWS V14.01,2013-09-05 20:20:00,
2013-09-05 16:25:00,72.1,31.2,29.44,WSW,248,1.3,1.6,22,0.00,,,0.00,VWS V14.01,2013-09-05 20:25:00,
2013-09-05 16:30:00,71.6,30.8,29.44,West,270,2.2,2.7,22,0.00,,,0.00,VWS V14.01,2013-09-05 20:30:00,
2013-09-05 16:35:00,72.1,31.2,29.44,WSW,248,2.0,2.7,22,0.00,,,0.00,VWS V14.01,2013-09-05 20:35:00,
2013-09-05 16:40:00,72.1,31.2,29.44,NE,45,2.2,2.2,22,0.00,,,0.00,VWS V14.01,2013-09-05 20:40:00,
2013-09-05 16:45:00,72.7,31.7,29.44,WSW,248,0.0,0.0,22,0.00,,,0.00,VWS V14.01,2013-09-05 20:45:00,
2013-09-05 16:50:00,73.0,32.0,29.44,NNW,338,0.0,1.3,22,0.00,,,0.00,VWS V14.01,2013-09-05 20:50:00,
2013-09-05 16:55:00,73.4,31.1,29.44,South,180,2.2,2.2,21,0.00,,,0.00,VWS V14.01,2013-09-05 20:55:00,
2013-09-05 17:00:00,72.7,31.7,29.44,NNW,338,2.7,2.9,22,0.00,,,0.00,VWS V14.01,2013-09-05 21:00:00,
2013-09-05 17:05:00,72.3,31.4,29.44,North,0,1.1,1.3,22,0.00,,,0.00,VWS V14.01,2013-09-05 21:05:00,
2013-09-05 17:10:00,72.5,31.5,29.44,WNW,292,3.1,3.1,22,0.00,,,0.00,VWS V14.01,2013-09-05 21:10:00,
2013-09-05 17:15:00,71.2,30.5,29.44,WNW,292,2.2,2.9,22,0.00,,,0.00,VWS V14.01,2013-09-05 21:15:00,
2013-09-05 17:21:00,70.3,29.7,29.44,WSW,248,2.5,3.6,22,0.00,,,0.00,VWS V14.01,2013-09-05 21:21:00,
2013-09-05 17:26:00,69.8,30.4,29.44,WNW,292,2.5,2.5,23,0.00,,,0.00,VWS V14.01,2013-09-05 21:26:00,
2013-09-05 17:31:00,69.4,30.1,29.44,West,270,0.9,2.2,23,0.00,,,0.00,VWS V14.01,2013-09-05 21:31:00,
2013-09-05 17:36:00,68.9,29.6,29.44,WSW,248,2.7,2.7,23,0.00,,,0.00,VWS V14.01,2013-09-05 21:36:00,
2013-09-05 17:41:00,69.4,31.1,29.41,NNW,338,2.5,2.5,24,0.00,,,0.00,VWS V14.01,2013-09-05 21:41:00,
2013-09-05 17:46:00,68.5,29.3,29.41,SSW,202,2.2,2.5,23,0.00,,,0.00,VWS V14.01,2013-09-05 21:46:00,
2013-09-05 17:51:00,69.3,31.0,29.41,West,270,0.9,0.9,24,0.00,,,0.00,VWS V14.01,2013-09-05 21:51:00,
2013-09-05 17:56:00,69.3,31.0,29.41,WSW,248,1.1,2.5,24,0.00,,,0.00,VWS V14.01,2013-09-05 21:56:00,
2013-09-05 18:01:00,70.2,31.7,29.41,NNW,338,1.1,1.3,24,0.00,,,0.00,VWS V14.01,2013-09-05 22:01:00,
2013-09-05 18:06:00,69.6,31.3,29.41,West,270,0.0,0.9,24,0.00,,,0.00,VWS V14.01,2013-09-05 22:06:00,
2013-09-05 18:11:00,70.3,30.8,29.41,WNW,292,2.0,2.5,23,0.00,,,0.00,VWS V14.01,2013-09-05 22:11:00,
2013-09-05 18:16:00,69.6,31.3,29.41,NNW,338,0.0,0.9,24,0.00,,,0.00,VWS V14.01,2013-09-05 22:16:00,
2013-09-05 18:21:00,69.6,31.3,29.41,WSW,248,4.0,4.0,24,0.00,,,0.00,VWS V14.01,2013-09-05 22:21:00,
2013-09-05 18:26:00,67.3,29.3,29.41,SW,225,4.3,4.3,24,0.00,,,0.00,VWS V14.01,2013-09-05 22:26:00,
2013-09-05 18:31:00,66.9,29.0,29.41,SW,225,2.0,2.9,24,0.00,,,0.00,VWS V14.01,2013-09-05 22:31:00,
2013-09-05 18:36:00,67.5,30.4,29.41,West,270,3.1,3.1,25,0.00,,,0.00,VWS V14.01,2013-09-05 22:36:00,
2013-09-05 18:41:00,67.3,30.3,29.41,SSW,202,0.0,0.0,25,0.00,,,0.00,VWS V14.01,2013-09-05 22:41:00,
2013-09-05 18:46:00,67.8,30.7,29.41,NW,315,1.1,1.6,25,0.00,,,0.00,VWS V14.01,2013-09-05 22:46:00,
2013-09-05 18:51:00,68.5,30.4,29.41,WSW,248,0.0,0.0,24,0.00,,,0.00,VWS V14.01,2013-09-05 22:51:00,
2013-09-05 18:56:00,68.7,31.5,29.38,WNW,292,1.1,1.1,25,0.00,,,0.00,VWS V14.01,2013-09-05 22:56:00,
2013-09-05 19:01:00,67.6,30.6,29.38,West,270,3.6,3.8,25,0.00,,,0.00,VWS V14.01,2013-09-05 23:01:00,
2013-09-05 19:06:00,66.7,29.8,29.38,WNW,292,2.5,2.5,25,0.00,,,0.00,VWS V14.01,2013-09-05 23:06:00,
2013-09-05 19:11:00,66.7,30.8,29.38,WSW,248,0.0,1.1,26,0.00,,,0.00,VWS V14.01,2013-09-05 23:11:00,
2013-09-05 19:16:00,65.7,29.9,29.38,West,270,1.6,3.6,26,0.00,,,0.00,VWS V14.01,2013-09-05 23:16:00,
2013-09-05 19:21:00,65.3,30.5,29.38,West,270,2.5,2.5,27,0.00,,,0.00,VWS V14.01,2013-09-05 23:21:00,
2013-09-05 19:26:00,65.1,32.1,29.38,WSW,248,1.3,1.6,29,0.00,,,0.00,VWS V14.01,2013-09-05 23:26:00,
2013-09-05 19:31:00,63.9,31.9,29.38,WSW,248,3.6,3.6,30,0.00,,,0.00,VWS V14.01,2013-09-05 23:31:00,
2013-09-05 19:36:00,63.5,32.3,29.38,West,270,1.3,2.9,31,0.00,,,0.00,VWS V14.01,2013-09-05 23:36:00,
2013-09-05 19:41:00,63.5,33.9,29.38,SW,225,0.0,0.0,33,0.00,,,0.00,VWS V14.01,2013-09-05 23:41:00,
2013-09-05 19:46:00,62.8,33.3,29.38,WSW,248,2.5,2.5,33,0.00,,,0.00,VWS V14.01,2013-09-05 23:46:00,
2013-09-05 19:51:00,61.7,33.1,29.38,West,270,2.5,2.7,34,0.00,,,0.00,VWS V14.01,2013-09-05 23:51:00,
2013-09-05 19:56:00,61.3,32.8,29.38,SW,225,1.6,1.6,34,0.00,,,0.00,VWS V14.01,2013-09-05 23:56:00,
2013-09-05 20:01:00,60.4,33.4,29.38,SSW,202,0.0,0.0,36,0.00,,,0.00,VWS V14.01,2013-09-06 00:01:00,
2013-09-05 20:06:00,59.4,32.4,29.38,SSW,202,0.0,1.6,36,0.00,,,0.00,VWS V14.01,2013-09-06 00:06:00,
2013-09-05 20:11:00,58.8,32.6,29.38,SW,225,0.0,0.9,37,0.00,,,0.00,VWS V14.01,2013-09-06 00:11:00,
2013-09-05 20:16:00,58.1,32.7,29.38,SSW,202,2.5,2.5,38,0.00,,,0.00,VWS V14.01,2013-09-06 00:16:00,
2013-09-05 20:21:00,57.6,32.8,29.38,SW,225,2.0,2.0,39,0.00,,,0.00,VWS V14.01,2013-09-06 00:21:00,
2013-09-05 20:26:00,57.2,33.1,29.38,SSW,202,1.6,2.7,40,0.00,,,0.00,VWS V14.01,2013-09-06 00:26:00,
2013-09-05 20:31:00,56.8,32.8,29.38,SW,225,0.0,1.3,40,0.00,,,0.00,VWS V14.01,2013-09-06 00:31:00,
2013-09-05 20:36:00,56.5,33.7,29.38,SSW,202,1.3,2.7,42,0.00,,,0.00,VWS V14.01,2013-09-06 00:36:00,
2013-09-05 20:41:00,56.3,34.1,29.38,SW,225,0.0,2.5,43,0.00,,,0.00,VWS V14.01,2013-09-06 00:41:00,
2013-09-05 20:46:00,56.1,34.5,29.38,SW,225,1.6,1.6,44,0.00,,,0.00,VWS V14.01,2013-09-06 00:46:00,
2013-09-05 20:51:00,55.9,34.4,29.38,SSW,202,1.6,3.1,44,0.00,,,0.00,VWS V14.01,2013-09-06 00:51:00,
2013-09-05 20:56:00,55.8,35.3,29.35,South,180,0.9,2.0,46,0.00,,,0.00,VWS V14.01,2013-09-06 00:56:00,
2013-09-05 21:02:00,55.8,35.3,29.35,SSW,202,1.1,1.6,46,0.00,,,0.00,VWS V14.01,2013-09-06 01:02:00,
2013-09-05 21:07:00,55.2,34.8,29.38,SW,225,2.0,2.0,46,0.00,,,0.00,VWS V14.01,2013-09-06 01:07:00,
2013-09-05 21:12:00,55.2,35.9,29.38,SSW,202,0.9,2.0,48,0.00,,,0.00,VWS V14.01,2013-09-06 01:12:00,
2013-09-05 21:17:00,55.0,36.2,29.38,SW,225,0.9,2.5,49,0.00,,,0.00,VWS V14.01,2013-09-06 01:17:00,
2013-09-05 21:22:00,54.7,35.4,29.41,SSW,202,0.9,1.6,48,0.00,,,0.00,VWS V14.01,2013-09-06 01:22:00,
2013-09-05 21:27:00,54.3,35.1,29.41,South,180,1.1,1.1,48,0.00,,,0.00,VWS V14.01,2013-09-06 01:27:00,
2013-09-05 21:32:00,54.3,35.6,29.41,SSE,158,0.0,1.1,49,0.00,,,0.00,VWS V14.01,2013-09-06 01:32:00,
2013-09-05 21:37:00,54.1,35.4,29.38,SSW,202,1.1,1.1,49,0.00,,,0.00,VWS V14.01,2013-09-06 01:37:00,
2013-09-05 21:42:00,54.3,35.6,29.38,South,180,0.0,0.9,49,0.00,,,0.00,VWS V14.01,2013-09-06 01:42:00,
2013-09-05 21:47:00,54.5,36.8,29.38,SE,135,1.1,1.1,51,0.00,,,0.00,VWS V14.01,2013-09-06 01:47:00,
2013-09-05 21:52:00,54.5,37.7,29.38,SSE,158,0.9,2.7,53,0.00,,,0.00,VWS V14.01,2013-09-06 01:52:00,
2013-09-05 21:57:00,54.5,37.2,29.38,SSW,202,0.9,1.6,52,0.00,,,0.00,VWS V14.01,2013-09-06 01:57:00,
2013-09-05 22:02:00,54.5,37.2,29.38,SSW,202,0.9,2.0,52,0.00,,,0.00,VWS V14.01,2013-09-06 02:02:00,
2013-09-05 22:07:00,54.5,37.7,29.35,SSW,202,0.9,2.2,53,0.00,,,0.00,VWS V14.01,2013-09-06 02:07:00,
2013-09-05 22:12:00,54.5,37.7,29.35,SSE,158,1.1,1.3,53,0.00,,,0.00,VWS V14.01,2013-09-06 02:12:00,
2013-09-05 22:17:00,54.3,37.6,29.35,SE,135,3.1,3.1,53,0.00,,,0.00,VWS V14.01,2013-09-06 02:17:00,
2013-09-05 22:22:00,54.5,38.2,29.38,SSE,158,2.5,2.5,54,0.00,,,0.00,VWS V14.01,2013-09-06 02:22:00,
2013-09-05 22:27:00,54.5,38.7,29.38,South,180,2.5,2.9,55,0.00,,,0.00,VWS V14.01,2013-09-06 02:27:00,
2013-09-05 22:32:00,54.5,38.7,29.38,South,180,1.1,1.6,55,0.00,,,0.00,VWS V14.01,2013-09-06 02:32:00,
2013-09-05 22:37:00,54.5,38.2,29.35,South,180,1.3,3.4,54,0.00,,,0.00,VWS V14.01,2013-09-06 02:37:00,
2013-09-05 22:42:00,54.3,38.0,29.35,SSW,202,1.3,1.3,54,0.00,,,0.00,VWS V14.01,2013-09-06 02:42:00,
2013-09-05 22:47:00,54.3,38.0,29.35,SSW,202,1.3,2.7,54,0.00,,,0.00,VWS V14.01,2013-09-06 02:47:00,
2013-09-05 22:52:00,54.3,38.0,29.35,SSE,158,1.1,1.6,54,0.00,,,0.00,VWS V14.01,2013-09-06 02:52:00,
2013-09-05 22:57:00,54.1,37.9,29.35,South,180,0.9,2.5,54,0.00,,,0.00,VWS V14.01,2013-09-06 02:57:00,
2013-09-05 23:02:00,54.1,38.3,29.35,SSW,202,2.2,4.0,55,0.00,,,0.00,VWS V14.01,2013-09-06 03:02:00,
2013-09-05 23:07:00,54.1,39.3,29.38,East,90,1.3,3.4,57,0.00,,,0.00,VWS V14.01,2013-09-06 03:07:00,
2013-09-05 23:12:00,54.1,39.7,29.38,SSE,158,2.5,3.1,58,0.00,,,0.00,VWS V14.01,2013-09-06 03:12:00,
2013-09-05 23:17:00,54.0,38.6,29.38,SSE,158,2.2,2.5,56,0.00,,,0.00,VWS V14.01,2013-09-06 03:17:00,
2013-09-05 23:23:00,54.0,38.2,29.38,SE,135,3.1,3.1,55,0.00,,,0.00,VWS V14.01,2013-09-06 03:23:00,
2013-09-05 23:28:00,54.1,37.9,29.38,SSE,158,1.3,2.7,54,0.00,,,0.00,VWS V14.01,2013-09-06 03:28:00,
2013-09-05 23:33:00,54.0,37.2,29.38,SSW,202,2.5,2.5,53,0.00,,,0.00,VWS V14.01,2013-09-06 03:33:00,
2013-09-05 23:38:00,53.8,37.1,29.38,ESE,112,2.5,2.9,53,0.00,,,0.00,VWS V14.01,2013-09-06 03:38:00,
2013-09-05 23:43:00,53.6,36.9,29.38,East,90,1.3,2.9,53,0.00,,,0.00,VWS V14.01,2013-09-06 03:43:00,
2013-09-05 23:48:00,53.8,37.1,29.38,SE,135,1.3,3.4,53,0.00,,,0.00,VWS V14.01,2013-09-06 03:48:00,
2013-09-05 23:53:00,53.6,37.4,29.38,SSE,158,2.5,2.7,54,0.00,,,0.00,VWS V14.01,2013-09-06 03:53:00,
2013-09-05 23:58:00,53.6,36.9,29.38,ESE,112,0.9,1.3,53,0.00,,,0.00,VWS V14.01,2013-09-06 03:58:00,